Time;durP1;ratioP1;P1;durP2;ratioP2;P2;SDS_P1;SDS_P2;PMS_P1;PMS_P2;Temp;Humidity;BMP_temperature;BMP_pressure;BME280_temperature;BME280_humidity;BME280_pressure;Samples;Min_cycle;Max_cycle;Signal;HPM_P1;HPM_P2
2023/09/19 00:00:49;;;;;;;3.20;1.70;;;;;;;24.63;51.42;99054.56;4461188;32;32832;-80
2023/09/19 00:03:18;;;;;;;3.25;1.95;;;;;;;24.69;51.32;99057.56;4461567;32;33444;-81
2023/09/19 00:05:48;;;;;;;3.03;1.70;;;;;;;24.65;51.38;99063.25;4466500;32;33775;-80
2023/09/19 00:08:17;;;;;;;3.95;1.67;;;;;;;24.48;51.79;99062.81;4480793;32;33704;-80
2023/09/19 00:10:46;;;;;;;3.12;1.67;;;;;;;24.66;51.42;99059.62;4460882;26;33297;-80
2023/09/19 00:13:16;;;;;;;4.03;2.28;;;;;;;24.66;51.57;99059.62;4418740;32;32087;-79
2023/09/19 00:15:48;;;;;;;4.28;1.80;;;;;;;24.52;51.86;99057.25;4425826;32;33066;-81
2023/09/19 00:18:20;;;;;;;3.37;1.90;;;;;;;24.56;51.79;99058.69;4434248;32;32414;-80
2023/09/19 00:20:49;;;;;;;3.30;1.70;;;;;;;24.75;51.42;99058.88;4428644;32;33205;-80
2023/09/19 00:23:19;;;;;;;5.82;2.42;;;;;;;24.52;52.09;99059.91;4428750;32;33706;-79
2023/09/19 00:25:48;;;;;;;3.08;1.67;;;;;;;24.45;52.32;99056.84;4428967;32;33987;-80
2023/09/19 00:28:19;;;;;;;3.70;1.98;;;;;;;24.37;52.60;99060.12;4429168;32;33644;-81
2023/09/19 00:30:50;;;;;;;5.10;2.92;;;;;;;24.58;52.12;99057.59;4423423;32;34189;-79
2023/09/19 00:33:20;;;;;;;4.53;2.47;;;;;;;24.44;52.57;99056.03;4426999;32;33862;-81
2023/09/19 00:35:49;;;;;;;6.37;2.45;;;;;;;24.50;52.52;99062.69;4426255;32;33547;-82
2023/09/19 00:38:21;;;;;;;7.10;2.42;;;;;;;24.43;52.74;99056.16;4429043;32;33383;-80
2023/09/19 00:40:51;;;;;;;6.95;2.00;;;;;;;24.54;52.48;99056.16;4435281;32;34227;-81
2023/09/19 00:43:23;;;;;;;3.75;2.42;;;;;;;24.50;52.53;99046.78;4423472;32;33933;-79
2023/09/19 00:45:55;;;;;;;3.72;1.85;;;;;;;24.60;52.33;99045.06;4420429;32;33144;-81
2023/09/19 00:48:28;;;;;;;4.20;2.05;;;;;;;24.37;53.03;99049.53;4430489;32;33305;-80
2023/09/19 00:50:59;;;;;;;3.00;1.62;;;;;;;24.48;52.79;99056.66;4436893;32;33615;-79
2023/09/19 00:53:28;;;;;;;3.47;1.87;;;;;;;24.38;53.26;99050.38;4436065;32;32730;-80
2023/09/19 00:55:57;;;;;;;7.18;3.10;;;;;;;24.41;53.11;99050.97;4431374;32;34544;-80
2023/09/19 00:58:32;;;;;;;4.15;2.10;;;;;;;24.45;53.11;99049.78;4426248;32;34786;-80
2023/09/19 01:01:02;;;;;;;3.45;2.00;;;;;;;24.47;53.10;99049.66;4423435;32;34141;-81
2023/09/19 01:03:31;;;;;;;3.58;1.87;;;;;;;24.54;52.93;99055.31;4426277;32;33430;-81
2023/09/19 01:06:01;;;;;;;5.05;2.30;;;;;;;24.61;52.79;99048.53;4415777;32;33670;-81
2023/09/19 01:08:31;;;;;;;4.40;2.00;;;;;;;24.42;53.33;99051.81;4416361;32;34219;-80
2023/09/19 01:11:02;;;;;;;4.78;2.37;;;;;;;24.30;53.72;99039.53;4422377;32;33614;-80
2023/09/19 01:13:42;;;;;;;5.68;2.05;;;;;;;24.52;53.11;99049.28;4420331;32;33599;-80
2023/09/19 01:16:18;;;;;;;3.60;1.80;;;;;;;24.34;53.68;99041.81;4425622;32;34018;-80
2023/09/19 01:18:55;;;;;;;7.22;3.60;;;;;;;24.36;53.58;99042.56;4429277;32;34367;-82
2023/09/19 01:21:29;;;;;;;4.12;2.15;;;;;;;24.38;53.54;99045.06;4416499;32;33217;-80
2023/09/19 01:24:17;;;;;;;5.07;2.50;;;;;;;24.32;53.77;99045.56;4423438;32;33312;-80
2023/09/19 01:27:08;;;;;;;5.18;2.35;;;;;;;24.47;53.37;99047.00;4419416;32;33527;-79
2023/09/19 01:29:40;;;;;;;4.70;2.22;;;;;;;24.49;53.37;99042.44;4432408;32;33955;-81
2023/09/19 01:32:13;;;;;;;7.20;2.40;;;;;;;24.43;53.65;99043.75;4430386;32;33220;-81
2023/09/19 01:34:48;;;;;;;4.45;2.62;;;;;;;24.50;53.28;99041.47;4424213;32;34452;-81
2023/09/19 01:37:20;;;;;;;4.55;2.30;;;;;;;24.54;53.30;99028.78;4421812;32;33827;-79
2023/09/19 01:39:52;;;;;;;4.90;2.10;;;;;;;24.21;54.18;99028.72;4424388;32;33738;-79
2023/09/19 01:42:30;;;;;;;4.60;2.35;;;;;;;24.44;53.67;99034.81;4436632;32;34505;-81
2023/09/19 01:45:07;;;;;;;6.50;2.53;;;;;;;24.20;54.37;99031.50;4429025;32;34177;-80
2023/09/19 01:47:42;;;;;;;9.88;3.20;;;;;;;24.42;53.62;99028.78;4431102;32;34588;-80
2023/09/19 01:50:18;;;;;;;4.70;2.47;;;;;;;24.31;54.05;99030.63;4431104;32;33820;-79
2023/09/19 01:52:50;;;;;;;4.70;2.30;;;;;;;24.42;53.66;99030.59;4419552;32;34442;-79
2023/09/19 01:55:20;;;;;;;4.82;2.67;;;;;;;24.19;54.41;99041.25;4428505;32;34392;-79
2023/09/19 01:57:55;;;;;;;5.50;2.55;;;;;;;24.37;53.91;99038.09;4420721;32;34364;-78
2023/09/19 02:00:24;;;;;;;6.95;2.25;;;;;;;24.28;54.22;99035.22;4415520;32;34115;-79
2023/09/19 02:02:58;;;;;;;5.65;2.50;;;;;;;24.30;54.28;99035.06;4415159;32;33843;-81
2023/09/19 02:05:29;;;;;;;4.43;2.30;;;;;;;24.22;54.55;99025.09;4415410;32;34648;-79
2023/09/19 02:07:58;;;;;;;4.85;2.20;;;;;;;24.29;54.30;99030.75;4422297;32;34121;-79
2023/09/19 02:10:27;;;;;;;4.20;2.28;;;;;;;24.32;54.23;99034.97;4424909;32;34895;-81
2023/09/19 02:12:56;;;;;;;5.93;3.42;;;;;;;24.30;54.22;99036.91;4423392;32;33648;-79
2023/09/19 02:15:25;;;;;;;4.93;2.90;;;;;;;24.06;54.85;99038.72;4427500;32;34195;-79
2023/09/19 02:17:56;;;;;;;5.22;2.70;;;;;;;24.12;54.77;99034.75;4418037;32;33784;-79
2023/09/19 02:20:26;;;;;;;4.32;2.17;;;;;;;24.17;54.71;99029.94;4434107;32;34574;-79
2023/09/19 02:22:55;;;;;;;5.20;2.30;;;;;;;24.02;55.08;99028.50;4429695;32;34023;-79
2023/09/19 02:25:26;;;;;;;5.22;2.55;;;;;;;24.09;54.98;99026.19;4429109;32;33596;-81
2023/09/19 02:27:58;;;;;;;6.35;2.72;;;;;;;24.06;54.94;99019.34;4428106;32;34015;-80
2023/09/19 02:30:27;;;;;;;6.47;2.58;;;;;;;24.32;54.30;99024.38;4432696;32;33199;-79
2023/09/19 02:33:01;;;;;;;5.60;3.47;;;;;;;24.18;54.71;99033.41;4425159;32;34797;-80
2023/09/19 02:35:32;;;;;;;4.93;1.98;;;;;;;24.03;54.83;99030.19;4426523;32;34256;-80
2023/09/19 02:38:06;;;;;;;7.07;2.90;;;;;;;24.03;55.06;99024.87;4419172;32;33867;-81
2023/09/19 02:40:36;;;;;;;3.53;2.08;;;;;;;24.01;55.09;99029.47;4427161;32;33712;-81
2023/09/19 02:43:06;;;;;;;4.78;2.80;;;;;;;24.11;54.75;99029.56;4432218;32;33109;-80
2023/09/19 02:45:35;;;;;;;6.07;2.70;;;;;;;24.04;55.00;99038.03;4428907;32;34460;-81
2023/09/19 02:48:07;;;;;;;4.68;2.80;;;;;;;24.04;54.89;99035.38;4427646;32;34859;-80
2023/09/19 02:50:36;;;;;;;4.07;2.33;;;;;;;23.85;55.42;99024.56;4429789;32;33712;-80
2023/09/19 02:53:07;;;;;;;5.55;2.67;;;;;;;23.70;55.95;99029.19;4429108;32;33132;-80
2023/09/19 02:55:38;;;;;;;4.05;2.12;;;;;;;23.89;55.46;99038.38;4418229;32;33827;-80
2023/09/19 02:58:07;;;;;;;4.90;2.72;;;;;;;23.59;56.32;99027.38;4424972;32;33553;-79
2023/09/19 03:00:36;;;;;;;5.75;2.97;;;;;;;23.67;56.00;99018.84;4420398;32;34165;-79
2023/09/19 03:03:08;;;;;;;4.10;2.05;;;;;;;23.66;56.00;99008.38;4427680;32;33397;-80
2023/09/19 03:05:38;;;;;;;5.10;2.35;;;;;;;23.49;56.48;99025.59;4419682;32;34410;-80
2023/09/19 03:08:07;;;;;;;6.00;2.92;;;;;;;23.59;56.19;99037.16;4405742;32;33530;-81
2023/09/19 03:10:37;;;;;;;4.47;2.40;;;;;;;23.57;56.28;99039.06;4414932;32;34386;-79
2023/09/19 03:13:09;;;;;;;4.07;2.37;;;;;;;23.75;55.79;99044.75;4421782;32;32984;-81
2023/09/19 03:15:43;;;;;;;4.72;2.78;;;;;;;23.67;55.86;99040.03;4432043;32;34312;-79
2023/09/19 03:18:14;;;;;;;5.20;2.35;;;;;;;23.50;56.39;99036.03;4429222;32;32843;-80
2023/09/19 03:20:44;;;;;;;6.25;2.45;;;;;;;23.53;56.30;99035.78;4416266;32;33631;-79
2023/09/19 03:23:14;;;;;;;5.25;2.62;;;;;;;23.42;56.59;99030.50;4420029;32;33435;-79
2023/09/19 03:25:43;;;;;;;3.42;1.87;;;;;;;23.59;56.29;99029.19;4415003;32;34505;-79
2023/09/19 03:28:12;;;;;;;4.80;2.10;;;;;;;23.87;55.33;99040.31;4430164;32;33991;-80
2023/09/19 03:30:41;;;;;;;5.30;2.33;;;;;;;23.56;56.34;99040.87;4425757;32;33989;-81
2023/09/19 03:33:11;;;;;;;5.35;2.45;;;;;;;23.47;56.63;99030.16;4426192;32;33255;-78
2023/09/19 03:35:44;;;;;;;4.32;2.08;;;;;;;23.61;56.14;99038.72;4428055;32;33685;-81
2023/09/19 03:38:13;;;;;;;4.10;2.37;;;;;;;23.54;56.47;99041.94;4426080;32;33931;-81
2023/09/19 03:40:42;;;;;;;5.25;2.67;;;;;;;23.70;56.20;99038.94;4430263;32;34306;-80
2023/09/19 03:43:11;;;;;;;5.12;2.62;;;;;;;23.62;56.37;99039.53;4430098;32;33306;-77
2023/09/19 03:45:40;;;;;;;5.97;3.15;;;;;;;23.49;56.87;99038.81;4424245;32;33981;-81
2023/09/19 03:48:10;;;;;;;4.45;2.80;;;;;;;23.49;56.79;99036.19;4429991;32;34664;-80
2023/09/19 03:50:38;;;;;;;3.95;2.42;;;;;;;23.48;56.75;99042.41;4434912;32;33863;-81
2023/09/19 03:53:08;;;;;;;3.65;2.20;;;;;;;23.53;56.69;99038.44;4418716;32;32733;-80
2023/09/19 03:55:38;;;;;;;5.70;2.90;;;;;;;23.47;56.87;99041.56;4414751;32;34171;-79
2023/09/19 03:58:07;;;;;;;6.05;3.03;;;;;;;23.43;56.95;99048.06;4414787;32;33928;-80
2023/09/19 04:00:36;;;;;;;4.72;2.30;;;;;;;23.64;56.34;99041.09;4420335;32;34071;-81
2023/09/19 04:03:08;;;;;;;4.15;2.30;;;;;;;23.58;56.67;99048.69;4416103;32;33551;-80
2023/09/19 04:05:37;;;;;;;5.72;2.50;;;;;;;23.25;57.83;99049.47;4414854;32;33624;-79
2023/09/19 04:08:07;;;;;;;4.87;2.50;;;;;;;23.30;57.61;99040.22;4417364;32;32644;-81
2023/09/19 04:10:37;;;;;;;6.22;2.97;;;;;;;23.46;57.09;99050.47;4417633;32;34028;-79
2023/09/19 04:13:07;;;;;;;5.43;2.57;;;;;;;23.38;57.47;99052.88;4429198;32;35507;-80
2023/09/19 04:15:37;;;;;;;5.20;2.78;;;;;;;23.39;57.52;99047.47;4419089;32;32955;-78
2023/09/19 04:18:06;;;;;;;4.45;2.15;;;;;;;23.49;57.32;99055.53;4418701;32;34726;-81
2023/09/19 04:20:35;;;;;;;5.10;2.92;;;;;;;23.53;57.48;99056.13;4427366;32;34002;-79
2023/09/19 04:23:05;;;;;;;3.22;1.73;;;;;;;23.59;57.57;99058.31;4428891;32;33567;-79
2023/09/19 04:25:34;;;;;;;4.27;1.90;;;;;;;23.49;58.17;99067.94;4429880;32;33577;-79
2023/09/19 04:28:06;;;;;;;3.50;1.67;;;;;;;23.00;59.51;99080.41;4423662;32;33470;-78
2023/09/19 04:30:37;;;;;;;2.62;1.20;;;;;;;23.02;59.10;99081.13;4417403;32;33904;-80
2023/09/19 04:33:06;;;;;;;1.95;0.98;;;;;;;22.71;59.14;99082.50;4424064;32;33972;-80
2023/09/19 04:35:36;;;;;;;1.37;0.82;;;;;;;22.72;59.04;99085.06;4433029;32;33758;-80
2023/09/19 04:38:06;;;;;;;0.47;0.47;;;;;;;22.85;58.40;99086.81;4424160;32;33651;-79
2023/09/19 04:40:35;;;;;;;1.30;0.65;;;;;;;22.66;58.72;99092.59;4426919;32;35119;-79
2023/09/19 04:43:07;;;;;;;1.70;0.62;;;;;;;22.51;59.34;99105.12;4424319;32;33135;-79
2023/09/19 04:45:36;;;;;;;0.93;0.77;;;;;;;22.24;60.78;99105.28;4429459;32;33788;-80
2023/09/19 04:48:06;;;;;;;0.90;0.80;;;;;;;21.85;62.42;99115.84;4415807;32;34306;-78
2023/09/19 04:50:35;;;;;;;0.70;0.60;;;;;;;21.82;62.95;99112.56;4414625;32;33595;-80
2023/09/19 04:53:04;;;;;;;0.40;0.40;;;;;;;21.71;63.52;99111.50;4419040;32;33566;-80
2023/09/19 04:55:33;;;;;;;0.90;0.50;;;;;;;21.48;64.29;99106.94;4429334;32;33731;-79
2023/09/19 04:58:02;;;;;;;1.80;0.50;;;;;;;21.56;64.39;99112.56;4425633;32;33577;-79
2023/09/19 05:00:35;;;;;;;1.70;0.50;;;;;;;21.35;65.08;99111.34;4418359;32;34019;-79
2023/09/19 05:03:05;;;;;;;0.85;0.60;;;;;;;21.34;65.29;99120.22;4418030;32;34788;-80
2023/09/19 05:05:34;;;;;;;;;;;;;;;21.13;66.02;99118.03;4424029;32;34235;-78
2023/09/19 05:08:05;;;;;;;0.68;0.50;;;;;;;21.01;66.42;99124.97;4427962;32;34245;-79
2023/09/19 05:10:34;;;;;;;0.50;0.50;;;;;;;20.83;66.83;99121.75;4419856;32;33910;-80
2023/09/19 05:13:04;;;;;;;0.37;0.37;;;;;;;20.87;66.54;99127.66;4423284;32;34274;-80
2023/09/19 05:15:35;;;;;;;0.35;0.35;;;;;;;20.85;65.90;99135.69;4420504;32;34075;-80
2023/09/19 05:18:06;;;;;;;0.77;0.40;;;;;;;20.79;65.77;99135.22;4419482;32;34197;-80
2023/09/19 05:20:37;;;;;;;0.82;0.47;;;;;;;20.83;65.94;99137.56;4427476;32;34485;-79
2023/09/19 05:23:11;;;;;;;0.30;0.30;;;;;;;21.18;64.82;99134.41;4430027;32;34008;-79
2023/09/19 05:25:42;;;;;;;2.50;0.40;;;;;;;20.99;65.18;99150.59;4434092;32;34546;-78
2023/09/19 05:28:15;;;;;;;0.40;0.40;;;;;;;20.89;64.94;99152.12;4439503;32;33619;-79
2023/09/19 05:30:45;;;;;;;0.30;0.30;;;;;;;20.44;66.07;99146.16;4435292;32;34542;-79
2023/09/19 05:33:18;;;;;;;0.40;0.40;;;;;;;20.63;65.50;99148.50;4435913;32;33421;-79
2023/09/19 05:35:48;;;;;;;0.70;0.35;;;;;;;20.44;66.22;99138.25;4426156;32;32956;-80
2023/09/19 05:38:19;;;;;;;0.47;0.47;;;;;;;20.12;67.30;99141.09;4424731;32;33920;-79
2023/09/19 05:40:48;;;;;;;0.60;0.60;;;;;;;20.00;67.69;99139.22;4441992;32;34516;-78
2023/09/19 05:43:16;;;;;;;0.50;0.50;;;;;;;19.88;68.26;99139.94;4430053;32;33592;-78
2023/09/19 05:45:47;;;;;;;0.75;0.70;;;;;;;19.97;68.16;99132.34;4424753;32;33932;-80
2023/09/19 05:48:16;;;;;;;1.40;0.50;;;;;;;20.21;67.21;99145.81;4421551;32;33654;-79
2023/09/19 05:50:48;;;;;;;0.85;0.55;;;;;;;20.35;66.83;99146.75;4420872;32;34004;-79
2023/09/19 05:53:18;;;;;;;0.40;0.40;;;;;;;20.29;66.96;99147.94;4432929;32;33535;-80
2023/09/19 05:55:47;;;;;;;0.43;0.40;;;;;;;20.30;66.74;99159.38;4435773;32;35815;-78
2023/09/19 05:58:17;;;;;;;0.55;0.50;;;;;;;20.43;66.55;99155.00;4431677;32;34277;-79
2023/09/19 06:00:49;;;;;;;0.57;0.43;;;;;;;20.39;66.66;99166.66;4429438;32;33706;-79
2023/09/19 06:03:20;;;;;;;;;;;;;;;20.26;66.86;99163.97;4430851;32;33390;-78
2023/09/19 06:05:49;;;;;;;0.40;0.40;;;;;;;20.58;66.17;99163.78;4436492;32;34642;-79
2023/09/19 06:08:18;;;;;;;0.75;0.40;;;;;;;20.37;67.17;99165.91;4429596;32;33634;-79
2023/09/19 06:10:48;;;;;;;0.95;0.40;;;;;;;20.57;66.35;99170.00;4429803;32;33866;-77
2023/09/19 06:13:19;;;;;;;0.55;0.47;;;;;;;20.64;65.66;99176.56;4430053;32;33465;-79
2023/09/19 06:15:52;;;;;;;0.70;0.40;;;;;;;20.22;67.62;99175.59;4430870;32;33834;-78
2023/09/19 06:18:21;;;;;;;0.75;0.60;;;;;;;20.18;68.43;99176.75;4436233;32;33234;-80
2023/09/19 06:20:50;;;;;;;2.47;0.70;;;;;;;20.21;68.22;99181.84;4430284;32;34747;-78
2023/09/19 06:23:22;;;;;;;0.60;0.57;;;;;;;20.31;67.95;99182.12;4430401;32;34246;-80
2023/09/19 06:25:51;;;;;;;0.57;0.55;;;;;;;20.52;67.42;99188.69;4430566;32;34723;-80
2023/09/19 06:28:23;;;;;;;0.45;0.45;;;;;;;20.27;68.09;99184.06;4436043;32;34359;-80
2023/09/19 06:30:54;;;;;;;0.52;0.50;;;;;;;20.41;67.72;99185.87;4430874;32;34767;-79
2023/09/19 06:33:23;;;;;;;0.53;0.53;;;;;;;20.24;68.90;99194.81;4429643;32;32620;-79
2023/09/19 06:35:57;;;;;;;1.00;0.57;;;;;;;20.20;69.37;99198.59;4415401;32;33712;-78
2023/09/19 06:38:26;;;;;;;0.52;0.50;;;;;;;20.00;70.28;99197.97;4414999;32;33989;-79
2023/09/19 06:40:55;;;;;;;0.50;0.50;;;;;;;19.80;72.07;99195.69;4424699;32;33722;-78
2023/09/19 06:43:24;;;;;;;1.20;0.50;;;;;;;20.02;71.57;99190.84;4424723;32;33640;-79
2023/09/19 06:45:55;;;;;;;0.40;0.40;;;;;;;20.04;71.47;99198.66;4426064;32;33467;-80
2023/09/19 06:48:26;;;;;;;;;;;;;;;19.85;73.05;99205.94;4430857;32;34735;-79
2023/09/19 06:50:55;;;;;;;0.47;0.40;;;;;;;19.67;74.51;99213.09;4436361;32;34486;-78
2023/09/19 06:53:24;;;;;;;1.17;0.68;;;;;;;19.32;75.96;99213.34;4429583;32;33692;-78
2023/09/19 06:55:53;;;;;;;0.50;0.50;;;;;;;19.19;77.21;99227.19;4430527;32;34414;-78
2023/09/19 06:58:22;;;;;;;0.30;0.30;;;;;;;19.08;78.64;99226.09;4415937;32;33821;-79
2023/09/19 07:00:51;;;;;;;0.57;0.57;;;;;;;19.20;77.43;99246.44;4433036;32;34589;-77
2023/09/19 07:03:25;;;;;;;1.00;0.60;;;;;;;19.18;78.44;99249.19;4435529;32;33241;-77
2023/09/19 07:05:55;;;;;;;1.08;0.55;;;;;;;19.33;78.27;99250.09;4430234;32;34377;-77
2023/09/19 07:08:24;;;;;;;0.83;0.60;;;;;;;19.07;78.94;99248.91;4430406;32;33113;-79
2023/09/19 07:10:54;;;;;;;0.98;0.62;;;;;;;19.00;80.34;99262.47;4428618;32;33751;-77
2023/09/19 07:13:25;;;;;;;0.90;0.60;;;;;;;19.07;80.71;99259.44;4434550;32;35516;-78
2023/09/19 07:15:55;;;;;;;0.40;0.40;;;;;;;19.13;79.75;99259.06;4428601;32;33476;-79
2023/09/19 07:18:25;;;;;;;0.60;0.60;;;;;;;19.07;80.58;99259.44;4429142;32;34190;-78
2023/09/19 07:21:01;;;;;;;0.47;0.47;;;;;;;19.05;80.76;99261.28;4429715;32;33741;-81
2023/09/19 07:23:29;;;;;;;1.70;0.80;;;;;;;19.20;79.96;99262.22;4430327;32;32445;-80
2023/09/19 07:26:00;;;;;;;0.40;0.40;;;;;;;19.10;80.23;99261.87;4435990;32;33550;-80
2023/09/19 07:28:29;;;;;;;0.40;0.40;;;;;;;18.85;81.74;99261.53;4430280;32;33595;-80
2023/09/19 07:30:58;;;;;;;0.40;0.40;;;;;;;18.98;81.85;99262.56;4431479;32;34064;-79
2023/09/19 07:33:31;;;;;;;;;;;;;;;18.86;82.03;99265.84;4430533;32;34275;-80
2023/09/19 07:36:00;;;;;;;0.52;0.52;;;;;;;18.89;82.88;99269.16;4436032;32;33213;-79
2023/09/19 07:38:29;;;;;;;0.70;0.70;;;;;;;18.92;82.12;99268.16;4430297;32;34705;-80
2023/09/19 07:41:02;;;;;;;0.43;0.43;;;;;;;18.80;83.70;99269.66;4430150;32;34184;-79
2023/09/19 07:43:31;;;;;;;0.85;0.65;;;;;;;18.84;83.75;99272.97;4427254;32;88972;-81
2023/09/19 07:46:06;;;;;;;0.35;0.35;;;;;;;19.18;82.25;99275.47;4430032;32;33604;-80
2023/09/19 07:48:38;;;;;;;1.05;0.52;;;;;;;19.23;80.87;99279.59;4435426;32;32773;-79
2023/09/19 07:51:08;;;;;;;0.50;0.50;;;;;;;19.02;81.65;99279.88;4431002;32;34269;-82
2023/09/19 07:53:37;;;;;;;2.05;1.25;;;;;;;18.92;82.52;99278.69;4429455;32;33511;-80
2023/09/19 07:56:10;;;;;;;0.40;0.40;;;;;;;18.81;83.18;99287.13;4430546;32;33099;-78
2023/09/19 07:58:41;;;;;;;2.28;0.73;;;;;;;19.05;82.66;99286.75;4434780;32;35815;-81
2023/09/19 08:01:13;;;;;;;2.37;0.90;;;;;;;19.09;82.34;99291.75;4435601;32;34653;-80
2023/09/19 08:03:44;;;;;;;0.50;0.50;;;;;;;19.26;81.02;99297.88;4430052;32;32645;-80
2023/09/19 08:06:13;;;;;;;0.70;0.70;;;;;;;19.08;82.13;99307.59;4430094;32;34040;-80
2023/09/19 08:08:42;;;;;;;0.50;0.50;;;;;;;19.24;81.01;99300.56;4429617;32;33755;-80
2023/09/19 08:11:12;;;;;;;0.65;0.60;;;;;;;19.26;81.36;99311.88;4435481;32;34496;-79
2023/09/19 08:13:43;;;;;;;0.52;0.52;;;;;;;19.39;80.62;99314.66;4429961;32;32205;-81
2023/09/19 08:16:13;;;;;;;0.50;0.50;;;;;;;19.29;80.70;99313.47;4429965;32;34052;-81
2023/09/19 08:18:43;;;;;;;0.68;0.65;;;;;;;19.28;80.03;99311.75;4429975;32;34502;-81
2023/09/19 08:21:14;;;;;;;1.50;0.60;;;;;;;19.27;80.95;99320.59;4429449;32;33364;-80
2023/09/19 08:23:48;;;;;;;0.60;0.60;;;;;;;19.38;80.32;99318.22;4420398;32;34101;-80
2023/09/19 08:26:17;;;;;;;0.50;0.43;;;;;;;19.44;80.83;99317.88;4416580;32;33626;-80
2023/09/19 08:28:47;;;;;;;1.10;0.62;;;;;;;19.54;78.80;99332.22;4420462;32;33665;-80
2023/09/19 08:31:17;;;;;;;0.50;0.50;;;;;;;19.36;79.71;99328.81;4422497;32;34569;-81
2023/09/19 08:33:49;;;;;;;0.80;0.57;;;;;;;19.49;79.04;99336.03;4435462;32;34096;-80
2023/09/19 08:36:18;;;;;;;0.62;0.60;;;;;;;19.36;79.63;99336.72;4424709;32;34383;-80
2023/09/19 08:38:49;;;;;;;1.10;0.43;;;;;;;19.33;79.62;99336.03;4418021;32;34532;-82
2023/09/19 08:41:19;;;;;;;0.73;0.65;;;;;;;19.35;80.48;99350.81;4421867;32;34201;-79
2023/09/19 08:43:48;;;;;;;0.85;0.47;;;;;;;19.72;78.58;99358.47;4426419;32;33119;-80
2023/09/19 08:46:19;;;;;;;2.78;0.60;;;;;;;19.82;78.28;99370.19;4427150;32;33892;-80
2023/09/19 08:48:58;;;;;;;0.70;0.60;;;;;;;19.98;77.78;99381.56;4421753;32;33972;-80
2023/09/19 08:51:44;;;;;;;0.57;0.50;;;;;;;20.09;77.44;99393.25;4423990;32;34865;-81
2023/09/19 08:54:22;;;;;;;1.10;0.68;;;;;;;19.97;77.66;99400.91;4424061;32;33358;-80
2023/09/19 08:56:52;;;;;;;1.05;0.80;;;;;;;20.04;77.83;99398.78;4421748;32;33874;-78
2023/09/19 08:59:26;;;;;;;1.75;1.08;;;;;;;20.17;77.09;99396.28;4426914;32;34516;-81
2023/09/19 09:02:01;;;;;;;1.15;0.80;;;;;;;20.15;77.82;99403.41;4420942;32;34595;-81
2023/09/19 09:04:34;;;;;;;1.98;1.40;;;;;;;20.32;76.70;99391.91;4421112;32;33502;-82
2023/09/19 09:07:11;;;;;;;1.27;0.70;;;;;;;20.42;76.02;99383.37;4427470;32;33596;-81
2023/09/19 09:09:49;;;;;;;1.20;0.80;;;;;;;20.57;75.78;99378.19;4422403;32;34901;-81
2023/09/19 09:12:26;;;;;;;1.92;1.02;;;;;;;20.46;76.93;99363.84;4429590;32;33879;-80
2023/09/19 09:14:57;;;;;;;1.65;0.95;;;;;;;20.55;77.67;99337.87;4422653;32;34103;-81
2023/09/19 09:17:26;;;;;;;2.92;1.52;;;;;;;20.76;76.36;99336.59;4427140;32;33511;-81
2023/09/19 09:19:56;;;;;;;1.08;0.77;;;;;;;20.81;75.80;99326.62;4425045;32;33721;-82
2023/09/19 09:22:26;;;;;;;1.00;0.85;;;;;;;20.88;75.02;99322.66;4426381;32;34733;-80
2023/09/19 09:24:58;;;;;;;2.37;1.12;;;;;;;21.13;74.13;99317.66;4436315;32;34276;-80
2023/09/19 09:27:27;;;;;;;3.42;1.20;;;;;;;21.14;73.97;99322.81;4431052;32;33771;-79
2023/09/19 09:29:55;;;;;;;2.25;1.35;;;;;;;21.04;75.31;99329.63;4430957;32;34888;-81
2023/09/19 09:32:26;;;;;;;2.40;1.15;;;;;;;21.16;72.67;99334.12;4431271;32;34456;-81
2023/09/19 09:35:00;;;;;;;1.62;0.88;;;;;;;20.84;74.91;99330.84;4434162;32;33328;-81
2023/09/19 09:37:31;;;;;;;1.75;1.00;;;;;;;20.81;74.98;99349.50;4423580;32;32867;-80
2023/09/19 09:40:19;;;;;;;1.17;0.90;;;;;;;20.68;76.32;99354.66;4430530;32;33815;-80
2023/09/19 09:42:52;;;;;;;2.70;1.20;;;;;;;20.46;76.55;99360.34;4433580;32;34117;-80
2023/09/19 09:45:37;;;;;;;2.17;1.33;;;;;;;20.44;77.74;99376.25;4430287;32;34262;-82
2023/09/19 09:48:14;;;;;;;2.40;1.27;;;;;;;20.56;78.99;99373.84;4431044;32;35532;-80
2023/09/19 09:50:55;;;;;;;1.20;1.10;;;;;;;20.74;76.68;99378.03;4430348;32;34532;-80
2023/09/19 09:53:31;;;;;;;2.92;1.50;;;;;;;20.49;78.75;99372.47;4425514;32;33691;-81
2023/09/19 09:56:09;;;;;;;2.78;1.52;;;;;;;20.64;78.62;99363.72;4430761;32;33634;-80
2023/09/19 09:58:40;;;;;;;3.08;1.55;;;;;;;20.62;77.12;99362.94;4426308;32;34396;-81
2023/09/19 10:01:10;;;;;;;2.75;1.40;;;;;;;20.74;79.05;99369.28;4430887;32;34567;-81
2023/09/19 10:03:41;;;;;;;2.55;1.30;;;;;;;21.11;76.72;99365.22;4436669;32;34938;-81
2023/09/19 10:09:10;;;;;;;2.42;1.27;;;;;;;20.96;78.59;99363.53;4422216;32;33572;-81
2023/09/19 10:11:46;;;;;;;2.17;1.25;;;;;;;21.47;74.03;99361.25;4421962;32;34686;-79
2023/09/19 10:14:23;;;;;;;1.27;1.10;;;;;;;21.67;74.00;99368.78;4423054;32;33999;-81
2023/09/19 10:17:00;;;;;;;2.10;1.37;;;;;;;21.78;73.56;99369.88;4427043;32;33682;-81
2023/09/19 10:19:33;;;;;;;2.85;1.45;;;;;;;21.85;74.54;99371.16;4427568;32;33659;-80
2023/09/19 10:22:08;;;;;;;1.58;1.20;;;;;;;21.83;73.06;99368.63;4427098;32;32813;-80
2023/09/19 10:24:38;;;;;;;2.40;1.40;;;;;;;22.01;72.04;99374.50;4430516;32;32949;-80
2023/09/19 10:27:29;;;;;;;1.98;1.30;;;;;;;21.97;71.39;99373.00;4430450;32;34367;-80
2023/09/19 10:30:00;;;;;;;3.22;1.45;;;;;;;21.86;71.52;99380.75;4430542;32;34784;-82
2023/09/19 10:32:33;;;;;;;3.42;1.40;;;;;;;21.89;71.09;99375.28;4436236;32;34490;-80
2023/09/19 10:35:04;;;;;;;2.30;1.30;;;;;;;21.76;70.07;99383.16;4430683;32;33932;-80
2023/09/19 10:37:39;;;;;;;1.45;1.20;;;;;;;21.48;72.14;99379.66;4430908;32;32890;-81
2023/09/19 10:40:10;;;;;;;1.40;1.08;;;;;;;21.61;72.85;99387.62;4430006;32;34181;-81
2023/09/19 10:42:42;;;;;;;2.12;1.35;;;;;;;21.80;71.64;99386.47;4430290;32;34270;-82
2023/09/19 10:45:13;;;;;;;2.00;1.23;;;;;;;21.79;70.55;99390.03;4435393;32;33457;-81
2023/09/19 10:47:42;;;;;;;1.52;1.08;;;;;;;21.70;71.14;99391.50;4429768;32;33197;-81
2023/09/19 10:50:21;;;;;;;2.20;1.25;;;;;;;21.55;72.01;99388.00;4430034;32;34291;-81
2023/09/19 10:52:58;;;;;;;1.12;0.85;;;;;;;21.71;72.36;99399.28;4429775;32;34595;-80
2023/09/19 10:55:30;;;;;;;1.27;0.80;;;;;;;21.84;71.72;99395.84;4434528;32;34592;-81
2023/09/19 10:58:14;;;;;;;1.60;1.00;;;;;;;21.94;72.08;99395.19;4435902;32;34490;-80
2023/09/19 11:00:53;;;;;;;1.60;1.00;;;;;;;22.11;71.96;99399.37;4430245;32;34631;-78
2023/09/19 11:03:30;;;;;;;0.77;0.60;;;;;;;22.36;67.90;99406.53;4430853;32;34914;-78
2023/09/19 11:06:09;;;;;;;1.40;0.82;;;;;;;22.17;68.32;99406.03;4430301;32;33911;-79
2023/09/19 11:09:10;;;;;;;0.60;0.60;;;;;;;22.27;68.78;99411.59;4430756;32;33131;-79
2023/09/19 11:11:57;;;;;;;2.45;0.90;;;;;;;22.33;68.99;99412.03;4430614;32;33362;-79
2023/09/19 11:14:39;;;;;;;1.40;0.75;;;;;;;22.54;68.99;99404.47;4436366;32;33705;-78
2023/09/19 11:17:45;;;;;;;1.12;0.73;;;;;;;22.52;66.37;99406.37;4430371;32;34220;-78
2023/09/19 11:20:35;;;;;;;0.68;0.65;;;;;;;22.75;64.63;99399.50;4430948;32;34316;-80
2023/09/19 11:23:25;;;;;;;0.50;0.50;;;;;;;22.60;64.71;99400.56;4430758;32;34393;-79
2023/09/19 11:25:55;;;;;;;1.45;0.60;;;;;;;22.66;64.10;99396.66;4430594;32;35124;-79
2023/09/19 11:28:35;;;;;;;0.52;0.50;;;;;;;22.71;62.47;99395.41;4429325;32;34004;-78
2023/09/19 11:31:56;;;;;;;1.98;0.80;;;;;;;22.94;60.86;99392.97;4430442;32;33660;-82
2023/09/19 11:34:50;;;;;;;1.12;0.75;;;;;;;22.88;61.56;99393.38;4430820;32;35335;-80
2023/09/19 11:38:10;;;;;;;0.50;0.50;;;;;;;22.91;61.64;99401.13;4432790;32;33795;-80
2023/09/19 11:40:54;;;;;;;1.05;0.82;;;;;;;22.76;60.33;99400.34;4430595;32;33819;-81
2023/09/19 11:43:33;;;;;;;1.20;0.52;;;;;;;22.72;59.94;99393.59;4436055;32;33720;-81
2023/09/19 11:46:09;;;;;;;0.47;0.47;;;;;;;22.57;61.28;99392.84;4430290;32;33524;-78
2023/09/19 11:48:43;;;;;;;1.10;0.55;;;;;;;22.67;61.57;99395.72;4430119;32;33987;-79
2023/09/19 11:51:22;;;;;;;0.45;0.45;;;;;;;22.54;62.36;99393.91;4429636;32;34045;-79
2023/09/19 11:53:51;;;;;;;0.52;0.40;;;;;;;22.72;62.32;99386.50;4426032;32;32724;-78
2023/09/19 11:56:27;;;;;;;0.43;0.43;;;;;;;22.99;60.39;99388.25;4421795;32;32034;-78
2023/09/19 11:58:59;;;;;;;0.82;0.80;;;;;;;23.23;60.65;99382.19;4421275;32;34019;-78
2023/09/19 12:01:32;;;;;;;1.05;0.60;;;;;;;23.25;60.77;99377.66;4430088;32;34109;-78